Time;durP1;ratioP1;P1;durP2;ratioP2;P2;SDS_P1;SDS_P2;PMS_P1;PMS_P2;Temp;Humidity;BMP_temperature;BMP_pressure;BME280_temperature;BME280_humidity;BME280_pressure;Samples;Min_cycle;Max_cycle;Signal;HPM_P1;HPM_P2
2023/03/05 00:00:51;;;;;;;26.15;11.32;;;;;;;;;;5007279;28;20042;-82
2023/03/05 00:03:17;;;;;;;39.97;15.23;;;;;;;;;;5018602;28;20378;-82
2023/03/05 00:05:43;;;;;;;16.35;8.68;;;;;;;;;;5011615;28;20057;-82
2023/03/05 00:08:09;;;;;;;34.08;13.73;;;;;;;;;;5012709;28;20041;-81
2023/03/05 00:10:35;;;;;;;35.53;15.88;;;;;;;;;;5011573;28;20546;-82
2023/03/05 00:13:01;;;;;;;32.80;14.00;;;;;;;;;;5021647;28;20038;-82
2023/03/05 00:15:27;;;;;;;41.28;15.90;;;;;;;;;;5018360;28;20029;-82
2023/03/05 00:17:53;;;;;;;26.23;13.18;;;;;;;;;;5011505;28;20045;-82
2023/03/05 00:20:19;;;;;;;40.72;15.98;;;;;;;;;;5011954;28;20045;-82
2023/03/05 00:22:45;;;;;;;33.47;15.27;;;;;;;;;;5015400;28;20164;-82
2023/03/05 00:25:11;;;;;;;37.42;15.20;;;;;;;;;;5008038;28;20062;-82
2023/03/05 00:27:37;;;;;;;29.10;13.10;;;;;;;;;;5012522;28;20033;-82
2023/03/05 00:30:04;;;;;;;31.67;13.60;;;;;;;;;;5010196;28;20467;-82
2023/03/05 00:32:30;;;;;;;27.92;12.65;;;;;;;;;;5012323;28;20077;-82
2023/03/05 00:34:56;;;;;;;32.05;13.68;;;;;;;;;;5007923;28;20038;-82
2023/03/05 00:37:22;;;;;;;36.40;13.88;;;;;;;;;;5009178;28;20045;-82
2023/03/05 00:39:47;;;;;;;21.27;10.57;;;;;;;;;;5014732;28;20030;-82
2023/03/05 00:42:13;;;;;;;34.83;13.98;;;;;;;;;;5009665;28;20038;-82
2023/03/05 00:44:39;;;;;;;24.75;9.43;;;;;;;;;;5013136;28;20153;-81
2023/03/05 00:47:05;;;;;;;27.52;12.02;;;;;;;;;;5018637;28;20474;-82
2023/03/05 00:49:31;;;;;;;19.42;10.05;;;;;;;;;;5008306;28;20050;-82
2023/03/05 00:51:57;;;;;;;22.75;11.18;;;;;;;;;;5019053;28;20022;-81
2023/03/05 00:54:23;;;;;;;35.15;16.60;;;;;;;;;;5014396;28;20038;-82
2023/03/05 00:56:49;;;;;;;26.60;12.70;;;;;;;;;;5014219;28;20038;-84
2023/03/05 00:59:15;;;;;;;18.85;9.88;;;;;;;;;;5010484;28;20034;-82
2023/03/05 01:01:41;;;;;;;33.33;14.32;;;;;;;;;;5004471;28;21507;-82
2023/03/05 01:04:07;;;;;;;25.80;12.35;;;;;;;;;;5017636;28;20034;-82
2023/03/05 01:06:33;;;;;;;23.17;10.88;;;;;;;;;;5008181;28;20037;-82
2023/03/05 01:08:59;;;;;;;30.95;13.63;;;;;;;;;;5014006;28;20071;-82
2023/03/05 01:11:26;;;;;;;28.08;13.20;;;;;;;;;;5015096;28;20078;-83
2023/03/05 01:13:52;;;;;;;30.70;13.10;;;;;;;;;;5014915;28;20033;-82
2023/03/05 01:16:18;;;;;;;28.95;13.93;;;;;;;;;;5012259;28;20042;-82
2023/03/05 01:18:43;;;;;;;25.98;11.30;;;;;;;;;;5013437;28;20356;-82
2023/03/05 01:21:10;;;;;;;23.83;12.45;;;;;;;;;;5011684;28;20060;-82
2023/03/05 01:23:36;;;;;;;30.05;12.90;;;;;;;;;;5010419;28;20037;-82
2023/03/05 01:26:02;;;;;;;22.33;10.23;;;;;;;;;;5010502;28;20034;-82
2023/03/05 01:28:28;;;;;;;38.00;14.15;;;;;;;;;;5015929;28;20045;-81
2023/03/05 01:30:54;;;;;;;27.27;12.50;;;;;;;;;;5012066;28;20039;-82
2023/03/05 01:33:20;;;;;;;34.70;14.77;;;;;;;;;;5007610;28;20092;-81
2023/03/05 01:35:47;;;;;;;38.20;13.23;;;;;;;;;;5012880;28;20405;-83
2023/03/05 01:38:13;;;;;;;32.15;12.90;;;;;;;;;;5011844;28;20053;-82
2023/03/05 01:40:39;;;;;;;29.10;12.43;;;;;;;;;;5011282;28;20034;-81
2023/03/05 01:43:11;;;;;;;25.38;11.27;;;;;;;;;;5015351;28;20053;-82
2023/03/05 01:45:37;;;;;;;29.48;13.38;;;;;;;;;;5013115;28;20038;-82
2023/03/05 01:48:03;;;;;;;28.15;14.13;;;;;;;;;;5008584;28;20042;-83
2023/03/05 01:50:29;;;;;;;31.90;13.55;;;;;;;;;;5005599;28;20045;-82
2023/03/05 01:52:58;;;;;;;29.15;13.18;;;;;;;;;;5013311;28;20042;-82
2023/03/05 01:55:25;;;;;;;27.83;12.63;;;;;;;;;;5014327;28;20109;-82
2023/03/05 01:58:09;;;;;;;27.30;13.15;;;;;;;;;;5016267;28;20033;-82
2023/03/05 02:00:39;;;;;;;30.23;12.82;;;;;;;;;;5014120;28;20588;-79
2023/03/05 02:03:05;;;;;;;26.65;12.45;;;;;;;;;;5012177;28;20034;-79
2023/03/05 02:05:32;;;;;;;31.48;12.20;;;;;;;;;;5010685;28;20045;-79
2023/03/05 02:08:00;;;;;;;27.45;12.48;;;;;;;;;;5010905;28;20030;-80
2023/03/05 02:10:31;;;;;;;28.88;12.68;;;;;;;;;;5011505;28;20038;-79
2023/03/05 02:12:59;;;;;;;34.20;13.68;;;;;;;;;;5013609;28;20037;-79
2023/03/05 02:15:25;;;;;;;27.63;13.25;;;;;;;;;;5006483;28;20367;-79
2023/03/05 02:17:51;;;;;;;25.45;11.23;;;;;;;;;;5012410;28;20110;-80
2023/03/05 02:20:18;;;;;;;33.28;14.20;;;;;;;;;;5010225;28;20018;-80
2023/03/05 02:22:45;;;;;;;28.67;12.67;;;;;;;;;;5012811;28;20021;-80
2023/03/05 02:25:37;;;;;;;31.00;12.52;;;;;;;;;;5008376;28;20023;-80
2023/03/05 02:28:07;;;;;;;27.08;13.60;;;;;;;;;;5017633;28;20042;-79
2023/03/05 02:30:34;;;;;;;35.40;13.52;;;;;;;;;;5015422;28;20041;-80
2023/03/05 02:33:00;;;;;;;26.00;11.80;;;;;;;;;;5006836;28;20162;-80
2023/03/05 02:35:26;;;;;;;31.67;13.63;;;;;;;;;;5010009;28;20002;-80
2023/03/05 02:37:52;;;;;;;30.15;14.38;;;;;;;;;;5009303;28;20054;-80
2023/03/05 02:40:18;;;;;;;27.73;13.52;;;;;;;;;;5012059;28;20060;-80
2023/03/05 02:42:45;;;;;;;28.25;13.23;;;;;;;;;;5010937;28;20048;-79
2023/03/05 02:45:12;;;;;;;23.75;10.27;;;;;;;;;;5014506;28;20600;-80
2023/03/05 02:47:38;;;;;;;27.00;11.50;;;;;;;;;;5017460;28;20034;-79
2023/03/05 02:50:05;;;;;;;13.93;7.18;;;;;;;;;;5019675;28;20053;-80
2023/03/05 02:52:31;;;;;;;30.30;12.80;;;;;;;;;;5016020;28;20096;-80
2023/03/05 02:54:57;;;;;;;22.15;11.10;;;;;;;;;;5014495;28;20033;-80
2023/03/05 02:57:23;;;;;;;27.73;14.30;;;;;;;;;;5015038;28;20030;-80
2023/03/05 02:59:49;;;;;;;33.33;14.38;;;;;;;;;;5012572;28;20084;-79
2023/03/05 03:02:15;;;;;;;22.20;9.80;;;;;;;;;;5008206;28;20042;-79
2023/03/05 03:04:42;;;;;;;35.10;14.10;;;;;;;;;;5014173;28;20038;-80
2023/03/05 03:07:08;;;;;;;35.97;15.52;;;;;;;;;;5009898;28;20389;-79
2023/03/05 03:09:34;;;;;;;37.90;14.88;;;;;;;;;;5017842;28;20157;-80
2023/03/05 03:12:01;;;;;;;36.75;14.43;;;;;;;;;;5010020;28;20025;-80
2023/03/05 03:14:27;;;;;;;27.77;12.60;;;;;;;;;;5011643;28;20022;-80
2023/03/05 03:16:53;;;;;;;34.15;14.05;;;;;;;;;;5013590;28;20037;-80
2023/03/05 03:19:19;;;;;;;27.60;12.02;;;;;;;;;;5014770;28;20116;-79
2023/03/05 03:21:45;;;;;;;32.25;14.10;;;;;;;;;;5014148;28;20029;-80
2023/03/05 03:24:11;;;;;;;31.45;12.75;;;;;;;;;;5015849;28;20041;-80
2023/03/05 03:26:37;;;;;;;25.63;13.75;;;;;;;;;;5011771;28;20034;-80
2023/03/05 03:29:03;;;;;;;21.55;11.05;;;;;;;;;;5013889;28;20084;-79
2023/03/05 03:31:29;;;;;;;30.25;13.25;;;;;;;;;;5012783;28;20930;-80
2023/03/05 03:33:55;;;;;;;29.52;12.45;;;;;;;;;;5008909;28;20074;-79
2023/03/05 03:36:21;;;;;;;37.25;14.07;;;;;;;;;;5013286;28;20113;-80
2023/03/05 03:38:46;;;;;;;28.67;13.27;;;;;;;;;;5013618;28;20030;-80
2023/03/05 03:41:12;;;;;;;30.10;13.95;;;;;;;;;;5010711;28;20026;-80
2023/03/05 03:43:38;;;;;;;25.70;12.65;;;;;;;;;;5015866;28;20097;-79
2023/03/05 03:46:05;;;;;;;31.45;12.60;;;;;;;;;;5008624;28;20097;-81
2023/03/05 03:48:31;;;;;;;25.95;11.77;;;;;;;;;;5010047;28;20121;-80
2023/03/05 03:50:57;;;;;;;30.88;13.02;;;;;;;;;;5011907;28;20037;-80
2023/03/05 03:53:23;;;;;;;33.88;14.20;;;;;;;;;;5009275;28;20033;-80
2023/03/05 03:55:49;;;;;;;33.97;13.77;;;;;;;;;;5010473;28;20034;-80
2023/03/05 03:58:15;;;;;;;31.85;13.55;;;;;;;;;;5014960;28;20058;-80
2023/03/05 04:00:41;;;;;;;33.47;13.68;;;;;;;;;;5010068;28;20037;-80
2023/03/05 04:03:08;;;;;;;27.88;13.57;;;;;;;;;;5014281;28;20034;-80
2023/03/05 04:05:34;;;;;;;27.27;12.50;;;;;;;;;;5011554;28;20789;-80
2023/03/05 04:08:00;;;;;;;25.83;12.68;;;;;;;;;;5010927;28;20041;-80
2023/03/05 04:10:26;;;;;;;26.60;13.45;;;;;;;;;;5012236;28;20778;-80
2023/03/05 04:12:52;;;;;;;29.08;12.77;;;;;;;;;;5015410;28;20034;-80
2023/03/05 04:15:18;;;;;;;35.70;12.98;;;;;;;;;;5012400;28;20061;-81
2023/03/05 04:17:44;;;;;;;22.58;12.27;;;;;;;;;;5013939;28;20502;-79
2023/03/05 04:20:11;;;;;;;27.65;12.98;;;;;;;;;;5016577;28;20039;-80
2023/03/05 04:22:37;;;;;;;28.30;12.10;;;;;;;;;;5011172;28;20124;-80
2023/03/05 04:25:07;;;;;;;27.73;12.45;;;;;;;;;;5014182;28;20065;-80
2023/03/05 04:27:33;;;;;;;26.80;12.02;;;;;;;;;;5011538;28;20077;-80
2023/03/05 04:30:00;;;;;;;33.17;14.40;;;;;;;;;;5014495;28;20030;-80
2023/03/05 04:32:28;;;;;;;20.85;10.57;;;;;;;;;;5013756;28;20087;-80
2023/03/05 04:34:54;;;;;;;27.58;12.57;;;;;;;;;;5017371;28;20014;-81
2023/03/05 04:37:20;;;;;;;28.90;11.60;;;;;;;;;;5011812;28;20030;-80
2023/03/05 04:39:46;;;;;;;32.92;13.98;;;;;;;;;;5012924;28;20504;-80
2023/03/05 04:42:12;;;;;;;36.53;15.55;;;;;;;;;;5014039;28;20029;-80
2023/03/05 04:44:38;;;;;;;27.42;12.60;;;;;;;;;;5011256;28;20048;-80
2023/03/05 04:47:04;;;;;;;27.50;11.27;;;;;;;;;;4999817;28;20040;-80
2023/03/05 04:49:30;;;;;;;31.73;13.15;;;;;;;;;;5001009;28;20062;-79
2023/03/05 04:51:56;;;;;;;33.25;13.50;;;;;;;;;;5007944;28;20026;-80
2023/03/05 04:54:23;;;;;;;28.42;13.40;;;;;;;;;;5011668;28;20481;-80
2023/03/05 04:56:49;;;;;;;29.90;11.93;;;;;;;;;;5015208;28;20237;-79
2023/03/05 04:59:15;;;;;;;28.55;12.60;;;;;;;;;;5013304;28;20486;-80
2023/03/05 05:01:42;;;;;;;27.17;11.45;;;;;;;;;;5014399;28;20038;-80
2023/03/05 05:04:08;;;;;;;32.50;12.63;;;;;;;;;;5016859;28;20037;-80
2023/03/05 05:06:34;;;;;;;32.45;13.05;;;;;;;;;;5009462;28;20038;-80
2023/03/05 05:09:00;;;;;;;40.78;15.13;;;;;;;;;;5015808;28;20026;-80
2023/03/05 05:11:26;;;;;;;24.08;12.40;;;;;;;;;;5011886;28;20467;-81
2023/03/05 05:13:52;;;;;;;17.33;7.97;;;;;;;;;;5016403;28;20045;-80
2023/03/05 05:16:18;;;;;;;23.00;11.32;;;;;;;;;;5014174;28;20022;-80
2023/03/05 05:18:44;;;;;;;35.85;13.95;;;;;;;;;;5010204;28;20509;-80
2023/03/05 05:21:11;;;;;;;31.48;13.15;;;;;;;;;;5013357;28;20025;-80
2023/03/05 05:23:38;;;;;;;26.10;11.57;;;;;;;;;;5016402;28;20038;-80
2023/03/05 05:26:05;;;;;;;24.98;10.05;;;;;;;;;;5017176;28;20053;-80
2023/03/05 05:28:31;;;;;;;29.05;11.93;;;;;;;;;;5012869;28;20034;-80
2023/03/05 05:30:57;;;;;;;36.85;13.80;;;;;;;;;;5004001;28;20026;-80
2023/03/05 05:33:23;;;;;;;32.03;13.25;;;;;;;;;;5015411;28;20007;-80
2023/03/05 05:35:49;;;;;;;30.65;14.13;;;;;;;;;;5009909;28;20076;-80
2023/03/05 05:38:15;;;;;;;37.38;14.52;;;;;;;;;;5010428;28;20041;-80
2023/03/05 05:40:41;;;;;;;31.08;12.80;;;;;;;;;;5010513;28;20026;-80
2023/03/05 05:43:07;;;;;;;25.27;11.10;;;;;;;;;;5006977;28;20582;-80
2023/03/05 05:45:33;;;;;;;30.08;12.75;;;;;;;;;;5010131;28;20057;-79
2023/03/05 05:47:59;;;;;;;24.23;10.88;;;;;;;;;;5010975;28;20111;-81
2023/03/05 05:50:26;;;;;;;34.80;12.93;;;;;;;;;;5006192;28;20029;-80
2023/03/05 05:52:52;;;;;;;33.42;13.43;;;;;;;;;;5012761;28;20467;-80
2023/03/05 05:55:18;;;;;;;37.65;13.30;;;;;;;;;;5009905;28;20037;-80
2023/03/05 05:57:44;;;;;;;36.22;12.85;;;;;;;;;;5007131;28;20096;-80
2023/03/05 06:00:11;;;;;;;31.20;13.00;;;;;;;;;;5007003;28;20038;-80
2023/03/05 06:02:37;;;;;;;32.17;13.75;;;;;;;;;;5011427;28;20038;-80
2023/03/05 06:05:04;;;;;;;29.25;13.18;;;;;;;;;;5006007;28;20018;-80
2023/03/05 06:07:30;;;;;;;22.42;10.57;;;;;;;;;;5010504;28;20818;-80
2023/03/05 06:09:56;;;;;;;33.72;12.80;;;;;;;;;;5012890;28;20079;-80
2023/03/05 06:12:22;;;;;;;29.60;13.18;;;;;;;;;;5014248;28;20105;-80
2023/03/05 06:14:48;;;;;;;32.40;14.18;;;;;;;;;;5013077;28;20075;-80
2023/03/05 06:17:14;;;;;;;34.45;13.85;;;;;;;;;;5008902;28;20062;-80
2023/03/05 06:19:40;;;;;;;34.13;15.45;;;;;;;;;;5008157;28;20025;-80
2023/03/05 06:22:06;;;;;;;34.20;14.63;;;;;;;;;;5002467;28;20048;-80
2023/03/05 06:24:32;;;;;;;35.50;13.02;;;;;;;;;;5008754;28;20024;-80
2023/03/05 06:26:58;;;;;;;32.45;13.55;;;;;;;;;;5013817;28;20034;-80
2023/03/05 06:29:24;;;;;;;31.85;13.60;;;;;;;;;;5011120;28;20030;-80
2023/03/05 06:31:50;;;;;;;33.17;13.45;;;;;;;;;;5008719;28;20029;-80
2023/03/05 06:34:16;;;;;;;27.08;13.18;;;;;;;;;;5006194;28;20548;-80
2023/03/05 06:36:43;;;;;;;31.60;12.82;;;;;;;;;;5009998;28;20050;-80
2023/03/05 06:39:09;;;;;;;36.45;12.15;;;;;;;;;;5010217;28;20034;-80
2023/03/05 06:41:35;;;;;;;24.88;11.35;;;;;;;;;;5010256;28;20037;-80
2023/03/05 06:44:02;;;;;;;34.88;15.07;;;;;;;;;;5008036;28;20033;-80
2023/03/05 06:46:29;;;;;;;35.30;14.93;;;;;;;;;;5012443;28;20041;-80
2023/03/05 06:48:56;;;;;;;39.25;13.57;;;;;;;;;;5009197;28;20050;-80
2023/03/05 06:51:24;;;;;;;30.70;13.30;;;;;;;;;;5008347;28;20041;-80
2023/03/05 06:53:50;;;;;;;32.10;12.10;;;;;;;;;;5011777;28;20030;-81
2023/03/05 06:56:17;;;;;;;26.48;12.45;;;;;;;;;;5015435;28;20026;-80
2023/03/05 06:58:45;;;;;;;26.58;11.80;;;;;;;;;;5011822;28;20026;-81
2023/03/05 07:01:11;;;;;;;31.90;13.38;;;;;;;;;;5009779;28;20045;-80
2023/03/05 07:03:37;;;;;;;25.55;11.85;;;;;;;;;;5011427;28;20445;-80
2023/03/05 07:06:07;;;;;;;36.20;14.27;;;;;;;;;;5008948;28;20034;-80
2023/03/05 07:08:33;;;;;;;28.98;13.40;;;;;;;;;;5009220;28;20038;-80
2023/03/05 07:10:59;;;;;;;26.63;9.32;;;;;;;;;;5013306;28;20096;-80
2023/03/05 07:13:25;;;;;;;28.83;13.43;;;;;;;;;;5011117;28;20093;-80
2023/03/05 07:15:51;;;;;;;28.85;12.40;;;;;;;;;;5009928;28;20022;-80
2023/03/05 07:18:17;;;;;;;32.45;13.38;;;;;;;;;;5009525;28;20033;-80
2023/03/05 07:20:43;;;;;;;31.48;12.13;;;;;;;;;;5009925;28;20231;-81
2023/03/05 07:23:09;;;;;;;28.73;12.27;;;;;;;;;;5011593;28;20026;-80
2023/03/05 07:25:35;;;;;;;33.38;12.60;;;;;;;;;;5006520;28;20309;-81
2023/03/05 07:28:02;;;;;;;31.60;13.93;;;;;;;;;;5008070;28;20030;-81
2023/03/05 07:30:28;;;;;;;28.52;13.95;;;;;;;;;;5012175;28;20034;-81
2023/03/05 07:32:54;;;;;;;28.50;13.52;;;;;;;;;;5017412;28;20030;-81
2023/03/05 07:35:20;;;;;;;31.77;13.00;;;;;;;;;;5015342;28;20022;-81
2023/03/05 07:37:46;;;;;;;36.85;12.52;;;;;;;;;;5014227;28;20034;-81
2023/03/05 07:40:12;;;;;;;28.95;13.48;;;;;;;;;;5010940;28;20165;-81
2023/03/05 07:42:38;;;;;;;27.48;12.10;;;;;;;;;;5017066;28;20025;-80
2023/03/05 07:45:04;;;;;;;27.38;11.43;;;;;;;;;;5013026;28;20148;-80
2023/03/05 07:47:30;;;;;;;25.70;11.82;;;;;;;;;;5016462;28;20041;-81
2023/03/05 07:49:56;;;;;;;33.88;11.88;;;;;;;;;;5013396;28;20043;-80
2023/03/05 07:52:22;;;;;;;28.67;12.02;;;;;;;;;;5014350;28;20029;-81
2023/03/05 07:54:48;;;;;;;30.50;12.77;;;;;;;;;;5014213;28;20068;-81
2023/03/05 07:57:14;;;;;;;32.58;11.73;;;;;;;;;;5008381;28;20030;-80
2023/03/05 07:59:40;;;;;;;26.20;10.77;;;;;;;;;;5012388;28;20034;-81
2023/03/05 08:02:06;;;;;;;30.83;12.85;;;;;;;;;;5007520;28;20160;-81
2023/03/05 08:04:32;;;;;;;28.77;12.77;;;;;;;;;;5017359;28;20474;-81
2023/03/05 08:06:59;;;;;;;29.38;12.60;;;;;;;;;;5010474;28;20038;-80
2023/03/05 08:09:25;;;;;;;28.23;11.38;;;;;;;;;;5014901;28;20030;-81
2023/03/05 08:11:51;;;;;;;35.25;10.45;;;;;;;;;;5013835;28;20057;-80
2023/03/05 08:14:17;;;;;;;25.58;12.43;;;;;;;;;;5011706;28;20030;-80
2023/03/05 08:16:43;;;;;;;26.75;12.13;;;;;;;;;;5014690;28;20032;-80
2023/03/05 08:19:10;;;;;;;28.63;10.05;;;;;;;;;;5011329;28;20120;-80
2023/03/05 08:21:36;;;;;;;24.33;9.95;;;;;;;;;;5004166;28;20027;-80
2023/03/05 08:24:03;;;;;;;27.98;11.70;;;;;;;;;;5012860;28;20034;-80
2023/03/05 08:26:30;;;;;;;28.88;12.95;;;;;;;;;;5008846;28;20034;-81
2023/03/05 08:28:57;;;;;;;32.75;12.07;;;;;;;;;;5014535;28;20426;-80
2023/03/05 08:31:24;;;;;;;29.23;11.73;;;;;;;;;;5012752;28;20049;-81
2023/03/05 08:33:52;;;;;;;21.42;11.27;;;;;;;;;;5009717;28;20025;-81
2023/03/05 08:36:18;;;;;;;16.10;8.00;;;;;;;;;;5007018;28;20108;-80
2023/03/05 08:38:45;;;;;;;26.23;9.77;;;;;;;;;;5010743;28;20026;-81
2023/03/05 08:41:11;;;;;;;23.42;9.93;;;;;;;;;;5014113;28;20021;-80
2023/03/05 08:43:38;;;;;;;23.05;10.32;;;;;;;;;;5012294;28;20038;-80
2023/03/05 08:46:04;;;;;;;22.48;9.82;;;;;;;;;;5010880;28;20036;-80
2023/03/05 08:48:30;;;;;;;19.73;9.38;;;;;;;;;;5009497;28;20172;-81
2023/03/05 08:50:56;;;;;;;29.55;12.63;;;;;;;;;;5007846;28;20044;-80
2023/03/05 08:53:22;;;;;;;24.73;10.75;;;;;;;;;;5015096;28;20053;-80
2023/03/05 08:55:55;;;;;;;25.80;10.15;;;;;;;;;;5009466;28;20033;-81
2023/03/05 08:58:21;;;;;;;9.98;6.50;;;;;;;;;;5008075;28;20756;-81
2023/03/05 09:00:47;;;;;;;24.02;10.90;;;;;;;;;;5008885;28;20125;-81
2023/03/05 09:03:13;;;;;;;21.35;8.90;;;;;;;;;;5012440;28;20026;-80
2023/03/05 09:05:39;;;;;;;22.60;9.60;;;;;;;;;;5009206;28;20054;-80
2023/03/05 09:08:05;;;;;;;33.10;11.43;;;;;;;;;;5008544;28;20426;-80
2023/03/05 09:10:31;;;;;;;24.58;10.65;;;;;;;;;;5005922;28;20046;-80
2023/03/05 09:12:57;;;;;;;28.77;10.95;;;;;;;;;;5007779;28;20054;-79
2023/03/05 09:15:23;;;;;;;15.27;7.38;;;;;;;;;;5009699;28;20499;-80
2023/03/05 09:17:49;;;;;;;23.42;10.43;;;;;;;;;;5012022;28;20049;-80
2023/03/05 09:20:15;;;;;;;18.98;9.43;;;;;;;;;;5010811;28;20089;-81
2023/03/05 09:22:42;;;;;;;24.48;10.55;;;;;;;;;;5007112;28;20065;-80
2023/03/05 09:25:08;;;;;;;25.63;10.02;;;;;;;;;;5003032;28;20046;-80
2023/03/05 09:27:37;;;;;;;20.55;9.85;;;;;;;;;;5000650;28;20034;-81
2023/03/05 09:30:04;;;;;;;22.52;8.93;;;;;;;;;;4996316;28;20038;-80
2023/03/05 09:32:30;;;;;;;27.42;11.05;;;;;;;;;;4998239;28;20046;-80
2023/03/05 09:34:56;;;;;;;23.73;8.95;;;;;;;;;;4996347;28;20040;-81
2023/03/05 09:37:22;;;;;;;29.20;11.70;;;;;;;;;;5000805;28;20014;-81
2023/03/05 09:39:48;;;;;;;24.40;10.73;;;;;;;;;;5013144;28;20076;-81
2023/03/05 09:42:22;;;;;;;30.40;12.23;;;;;;;;;;5007845;28;20414;-81
2023/03/05 09:45:02;;;;;;;25.50;10.63;;;;;;;;;;5012331;28;20069;-81
2023/03/05 09:47:28;;;;;;;14.38;6.80;;;;;;;;;;5008061;28;20106;-80
2023/03/05 09:49:58;;;;;;;25.25;11.88;;;;;;;;;;5013976;28;20077;-81
2023/03/05 09:52:40;;;;;;;19.20;10.20;;;;;;;;;;5010727;28;20089;-81
2023/03/05 09:55:12;;;;;;;19.23;9.10;;;;;;;;;;5007218;28;20509;-81
2023/03/05 09:57:42;;;;;;;23.02;8.70;;;;;;;;;;5012099;28;20040;-80
2023/03/05 10:00:27;;;;;;;8.35;4.38;;;;;;;;;;5015143;28;20050;-81
2023/03/05 10:02:57;;;;;;;24.45;11.52;;;;;;;;;;5013611;28;20042;-81
2023/03/05 10:05:42;;;;;;;29.92;11.10;;;;;;;;;;5010335;28;20070;-81
2023/03/05 10:08:10;;;;;;;24.77;10.70;;;;;;;;;;5010510;28;20030;-81
2023/03/05 10:10:39;;;;;;;8.20;4.05;;;;;;;;;;5006199;28;21503;-80
2023/03/05 10:13:07;;;;;;;15.93;7.70;;;;;;;;;;5013752;28;20081;-81
2023/03/05 10:15:42;;;;;;;17.90;8.27;;;;;;;;;;5010081;28;20037;-81
2023/03/05 10:18:37;;;;;;;25.20;12.57;;;;;;;;;;5009741;28;20068;-80
2023/03/05 10:21:15;;;;;;;29.05;12.05;;;;;;;;;;5013168;28;20050;-81
2023/03/05 10:23:41;;;;;;;25.17;9.63;;;;;;;;;;5006400;28;20557;-81
2023/03/05 10:26:25;;;;;;;22.40;10.73;;;;;;;;;;5006192;28;20053;-81
2023/03/05 10:29:04;;;;;;;13.95;7.25;;;;;;;;;;5005692;28;20034;-82
2023/03/05 10:31:45;;;;;;;22.70;9.30;;;;;;;;;;5003966;28;20062;-83
2023/03/05 10:34:31;;;;;;;21.55;9.63;;;;;;;;;;5013706;28;20029;-82
2023/03/05 10:36:57;;;;;;;24.77;10.65;;;;;;;;;;5006874;28;20069;-80
2023/03/05 10:39:42;;;;;;;13.40;5.93;;;;;;;;;;5012531;28;20053;-79
2023/03/05 10:42:19;;;;;;;26.02;9.93;;;;;;;;;;5011322;28;20053;-80
2023/03/05 10:44:54;;;;;;;17.90;8.27;;;;;;;;;;5011127;28;20040;-79
2023/03/05 10:47:26;;;;;;;29.90;12.38;;;;;;;;;;5011498;28;20037;-79
2023/03/05 10:49:54;;;;;;;26.60;10.88;;;;;;;;;;5009566;28;20116;-79
2023/03/05 10:52:23;;;;;;;11.65;5.63;;;;;;;;;;5008495;28;20509;-79
2023/03/05 10:54:49;;;;;;;5.10;3.55;;;;;;;;;;5011052;28;20077;-79
2023/03/05 10:57:19;;;;;;;27.30;11.27;;;;;;;;;;5009245;28;20039;-80
2023/03/05 10:59:49;;;;;;;10.57;5.68;;;;;;;;;;5002472;28;20029;-80
2023/03/05 11:02:14;;;;;;;15.57;8.43;;;;;;;;;;5011727;28;20038;-80
2023/03/05 11:04:40;;;;;;;23.33;10.77;;;;;;;;;;5012287;28;20030;-79
2023/03/05 11:07:16;;;;;;;25.40;10.00;;;;;;;;;;5015064;28;20030;-80
2023/03/05 11:09:42;;;;;;;30.20;11.50;;;;;;;;;;5016709;28;20034;-80
2023/03/05 11:12:11;;;;;;;23.67;8.40;;;;;;;;;;5011640;28;20022;-78
2023/03/05 11:14:39;;;;;;;13.07;6.78;;;;;;;;;;5016362;28;20030;-80
2023/03/05 11:17:24;;;;;;;12.68;6.15;;;;;;;;;;5011250;28;20125;-81
2023/03/05 11:19:50;;;;;;;16.20;8.40;;;;;;;;;;5014137;28;20065;-80
2023/03/05 11:22:20;;;;;;;15.90;7.47;;;;;;;;;;5015973;28;20033;-79
2023/03/05 11:25:05;;;;;;;23.20;8.77;;;;;;;;;;5011509;28;20061;-79
2023/03/05 11:27:34;;;;;;;9.63;5.53;;;;;;;;;;5015155;28;20143;-80
2023/03/05 11:29:59;;;;;;;;;;;;;;;;;;5011609;28;20414;-79
2023/03/05 11:32:26;;;;;;;17.20;6.80;;;;;;;;;;5017211;28;19929;-79
2023/03/05 11:34:53;;;;;;;19.73;8.63;;;;;;;;;;5016428;28;20034;-79
2023/03/05 11:37:27;;;;;;;17.08;9.60;;;;;;;;;;5016645;28;20128;-79
2023/03/05 11:40:12;;;;;;;28.38;12.07;;;;;;;;;;5013328;28;20039;-78
2023/03/05 11:42:39;;;;;;;27.70;12.05;;;;;;;;;;5013819;28;20030;-78
2023/03/05 11:45:06;;;;;;;26.80;10.83;;;;;;;;;;5012613;28;20030;-78
2023/03/05 11:47:47;;;;;;;24.83;10.80;;;;;;;;;;5014722;28;20038;-78
2023/03/05 11:50:16;;;;;;;11.93;5.60;;;;;;;;;;5012191;28;20052;-79
2023/03/05 11:52:42;;;;;;;;;;;;;;;;;;5012658;28;20040;-79
2023/03/05 11:55:25;;;;;;;21.17;10.05;;;;;;;;;;5013462;28;19909;-79
2023/03/05 11:57:57;;;;;;;20.83;9.32;;;;;;;;;;5006720;28;20104;-79
2023/03/05 12:00:27;;;;;;;16.92;7.78;;;;;;;;;;5007173;28;20061;-78
2023/03/05 12:02:54;;;;;;;25.85;11.43;;;;;;;;;;5006742;28;20562;-78
2023/03/05 12:05:20;;;;;;;18.75;8.10;;;;;;;;;;5010703;28;20438;-78
2023/03/05 12:07:49;;;;;;;25.52;10.35;;;;;;;;;;5012269;28;20042;-78
2023/03/05 12:10:22;;;;;;;26.60;10.05;;;;;;;;;;5009466;28;20528;-78
2023/03/05 12:13:07;;;;;;;25.42;8.82;;;;;;;;;;5002011;28;20035;-78
2023/03/05 12:15:51;;;;;;;23.50;11.65;;;;;;;;;;5013072;28;20053;-78
2023/03/05 12:18:18;;;;;;;23.25;10.18;;;;;;;;;;5007277;28;20097;-78
2023/03/05 12:20:53;;;;;;;10.77;5.07;;;;;;;;;;5009832;28;20030;-78
2023/03/05 12:23:21;;;;;;;23.77;10.45;;;;;;;;;;5007735;28;20032;-78
2023/03/05 12:25:51;;;;;;;20.02;8.85;;;;;;;;;;5012702;28;20064;-78
2023/03/05 12:28:37;;;;;;;18.92;8.25;;;;;;;;;;5012562;28;20025;-78
2023/03/05 12:31:04;;;;;;;26.40;9.48;;;;;;;;;;5013794;28;20046;-78
2023/03/05 12:33:35;;;;;;;11.18;5.95;;;;;;;;;;5013305;28;20044;-78
2023/03/05 12:36:20;;;;;;;23.73;8.57;;;;;;;;;;5009609;28;20088;-78
2023/03/05 12:38:46;;;;;;;19.02;6.63;;;;;;;;;;5012954;28;20172;-77
2023/03/05 12:41:33;;;;;;;21.33;9.93;;;;;;;;;;5008599;28;20030;-77
2023/03/05 12:44:05;;;;;;;12.48;6.38;;;;;;;;;;5013553;28;20060;-77
2023/03/05 12:46:34;;;;;;;21.40;10.82;;;;;;;;;;5005886;28;20030;-77
2023/03/05 12:49:00;;;;;;;19.73;8.95;;;;;;;;;;5014517;28;20061;-77
2023/03/05 12:51:34;;;;;;;17.85;7.65;;;;;;;;;;5012168;28;20030;-77
2023/03/05 12:54:19;;;;;;;18.98;9.73;;;;;;;;;;5011900;28;20413;-77
2023/03/05 12:56:46;;;;;;;19.25;8.80;;;;;;;;;;5008243;28;20134;-77
2023/03/05 12:59:13;;;;;;;24.17;10.73;;;;;;;;;;5008883;28;20453;-77
2023/03/05 13:01:45;;;;;;;17.67;7.70;;;;;;;;;;5011438;28;20050;-77
2023/03/05 13:04:15;;;;;;;15.18;7.30;;;;;;;;;;5007541;28;20398;-78
2023/03/05 13:06:41;;;;;;;11.57;5.65;;;;;;;;;;5011914;28;20054;-78
2023/03/05 13:09:16;;;;;;;17.10;6.85;;;;;;;;;;5012592;28;20064;-78
2023/03/05 13:11:44;;;;;;;10.18;5.22;;;;;;;;;;5009940;28;20030;-78
2023/03/05 13:14:29;;;;;;;13.43;5.75;;;;;;;;;;5013473;28;20080;-78
2023/03/05 13:16:55;;;;;;;8.40;4.00;;;;;;;;;;5010802;28;20057;-78
2023/03/05 13:19:21;;;;;;;3.97;3.03;;;;;;;;;;5016939;28;20490;-78
2023/03/05 13:21:57;;;;;;;5.30;3.35;;;;;;;;;;5014733;28;20030;-78
2023/03/05 13:24:23;;;;;;;10.55;5.47;;;;;;;;;;5012733;28;20169;-78
2023/03/05 13:26:49;;;;;;;14.93;6.00;;;;;;;;;;5012952;28;20502;-78
2023/03/05 13:29:19;;;;;;;10.95;5.80;;;;;;;;;;5010298;28;20037;-78
2023/03/05 13:31:49;;;;;;;10.35;6.03;;;;;;;;;;5009732;28;20042;-79
2023/03/05 13:34:26;;;;;;;12.38;5.97;;;;;;;;;;5015739;28;20109;-79
2023/03/05 13:36:54;;;;;;;10.48;4.88;;;;;;;;;;5014058;28;20034;-78
2023/03/05 13:39:22;;;;;;;9.90;5.10;;;;;;;;;;5005245;28;20065;-79
2023/03/05 13:42:01;;;;;;;10.88;5.68;;;;;;;;;;5013871;28;20030;-78
2023/03/05 13:44:28;;;;;;;11.15;5.57;;;;;;;;;;4998674;28;20030;-79
2023/03/05 13:47:05;;;;;;;8.93;5.50;;;;;;;;;;5011757;28;20040;-78
2023/03/05 13:49:31;;;;;;;11.45;6.13;;;;;;;;;;5014262;28;20058;-79
2023/03/05 13:51:59;;;;;;;8.98;4.78;;;;;;;;;;5007673;28;20124;-80
2023/03/05 13:54:25;;;;;;;12.15;6.40;;;;;;;;;;5010637;28;20040;-80
2023/03/05 13:56:51;;;;;;;6.82;4.35;;;;;;;;;;5005433;28;20029;-80
2023/03/05 13:59:19;;;;;;;9.98;5.03;;;;;;;;;;5001099;28;20017;-80
2023/03/05 14:01:47;;;;;;;9.63;5.90;;;;;;;;;;5009554;28;20029;-78
2023/03/05 14:04:12;;;;;;;8.67;5.43;;;;;;;;;;5013954;28;20030;-78
2023/03/05 14:06:45;;;;;;;9.13;5.70;;;;;;;;;;5010595;28;20292;-78
2023/03/05 14:09:25;;;;;;;13.07;5.88;;;;;;;;;;5012936;28;20456;-78
2023/03/05 14:11:55;;;;;;;10.45;5.35;;;;;;;;;;5011458;28;20022;-78
2023/03/05 14:14:22;;;;;;;12.93;5.75;;;;;;;;;;5010125;28;20037;-79
2023/03/05 14:16:48;;;;;;;9.77;4.93;;;;;;;;;;5011466;28;20558;-78
2023/03/05 14:19:35;;;;;;;10.25;5.43;;;;;;;;;;5007862;28;20099;-78
2023/03/05 14:22:01;;;;;;;9.90;4.97;;;;;;;;;;5007584;28;20054;-78
2023/03/05 14:24:30;;;;;;;14.68;5.28;;;;;;;;;;5013484;28;20086;-78
2023/03/05 14:26:57;;;;;;;10.88;6.03;;;;;;;;;;5011332;28;20044;-77